Florida AWOS List, Phone Numbers

USA |  
| Search AWOS

Rocky Mountain States: Montana | Wyoming | Colorado | New Mexico

Complete weather reports: Florida

Legend: KFNL = METAR available Follow your local AWOS on AV Mobile = METAR available on AV Mobile
Station Florida Location Frequency Phone
KAQQICAO ID KAQQ Apalachicola, Apalachicola
KAAFFAA ID AAF, ASOS, KAAF 100753Z AUTO 03007KT 10SM CLR 03/M04 A3044 Follow KAAF on AV Mobile APALACHICOLA MUNICIPAL AIRPORT 119.925 850-653-8271
KNAEICAO ID KNAE Astor, Bombing Range Detachment Astor
KAVOFAA ID AVO, AWOS-3 AVON PARK 118.725 863-453-4223
KAGRFAA ID AGR Avon Park Gunnery Range
KBOWFAA ID BOW, AWOS-3, KBOW 100835Z AUTO 35008KT 10SM FEW028 FEW033 11/06 A3032 RMK AO2 Follow KBOW on AV Mobile Bartow Municipal 123.775 863-533-9004
F95FAA ID F95, AWOS-AV, KSTF 100903Z AUTO 00000KT 10SM CLR M05/M06 A3058 RMK AO2 Follow  on AV Mobile BLOUNTSTOWN 119.350 850-674-1347
KBCTFAA ID BCT, AWOS-3, KBCT 100353Z 35006KT 10SM BKN018 OVC032 19/17 A3023 RMK LAST Follow KBCT on AV Mobile Boca Raton, Boca Raton Airport 121.125 561-391-2696
K1J0FAA ID 1J0, K1J0 100758Z AUTO 36003KT 10SM CLR 01/M04 A3050 RMK AO2 SLP313 T00061044 $ Follow K1J0 on AV Mobile TRI COUNTY AIRPORT
KBKVFAA ID BKV, ASOS, KBKV 100753Z RMK AO2 SLPNO PNO $ Follow KBKV on AV Mobile BROOKSVILLE HERNANDO CO AIRPORT 134.725 352-799-5881
K1J4ICAO ID K1J4 Cape San Blas Coast Guard Station
KNZCICAO ID KNZC Cecil, Naval Air Station
KCLWFAA ID CLW, AWOS-3P, KCLW 100835Z AUTO 04006KT 10SM CLR 09/01 A3033 RMK AO2 Follow KCLW on AV Mobile CLEARWATER 119.225 727-449-2184
2ISFAA ID 2IS, AWOS-3, KSTF 100903Z AUTO 00000KT 10SM CLR M05/M06 A3058 RMK AO2 Follow  on AV Mobile CLEWISTON 124.175 863-983-7020
KX53ICAO ID KX53 Clewiston
KCOFFAA ID COF, KCOF 100758Z AUTO 33011KT 10SM CLR 17/13 A3026 RMK AO2 SLP251 T01690133 $ Follow KCOF on AV Mobile Cocoa / Patrick Air Force Base
KXMRFAA ID XMR, KXMR 100758Z AUTO 04006KT 10SM BKN040 19/12 A3027 RMK AO2 SLP254 T01850115 $ Follow KXMR on AV Mobile Cocoa Beach, Cape Canaveral Air Force Station Skid Strip
KCEWFAA ID CEW, ASOS, KCEW 100753Z AUTO 03003KT 10SM CLR 00/M06 A3051 Follow KCEW on AV Mobile CRESTVIEW SIKES AIRPORT 119.275 850-682-1237
KEGIFAA ID EGI, KEGI 100758Z AUTO 01004KT 10SM CLR M01/M06 A3048 RMK AO2 SLP325 T10111059 $ Follow KEGI on AV Mobile Duke Field / Eglin Auxiliary
KCTYFAA ID CTY, KCTY 100810Z AUTO 01004KT 10SM CLR 01/M02 A3041 Follow KCTY on AV Mobile CROSS CITY AIRPORT
KCGCFAA ID CGC, AWOS-3, KCGC 100835Z AUTO 02004KT 10SM CLR 06/00 A3037 RMK AO2 Follow KCGC on AV Mobile CRYSTAL RIVER 118.325 352-563-6600
KDABFAA ID DAB, ASOS, KDAB 100753Z 30003KT 10SM FEW035 SCT140 SCT250 08/07 A3033 Follow KDAB on AV Mobile DAYTONA BEACH INTERNATIONAL 386-253-7469
54JFAA ID 54J, AWOS-3P, KSTF 100903Z AUTO 00000KT 10SM CLR M05/M06 A3058 RMK AO2 Follow  on AV Mobile DEFUNIAK SPRINGS 118.725 850-892-0147
KDEDFAA ID DED, AWOS-3, KDED 100835Z AUTO 33007KT 10SM CLR 09/06 A3033 RMK AO2 Follow KDED on AV Mobile DELAND 119.575 386-740-5811
KDTSFAA ID DTS, ASOS, KDTS 100753Z AUTO 03010KT 10SM CLR 04/M04 A3048 RMK AO2 SLP322 T00441044 Follow KDTS on AV Mobile DESTIN-FT WALTON BEACH AIRPORT 133.925 850-654-7128
KX91ICAO ID KX91 Egmont Key Coast Guard Station
KFHBFAA ID FHB, AWOS-3, KFHB 100835Z AUTO 34007KT 10SM CLR 08/05 A3039 RMK AO1 Follow KFHB on AV Mobile FERNANDINA BEACH 118.075 904-277-7323
KFXEFAA ID FXE, ASOS, KFXE 100807Z 32004KT 5SM -RA BR OVC015 18/17 A3020 Follow KFXE on AV Mobile FORT LAUDERDALE EXECUTIVE 954-772-2537
KFLLFAA ID FLL, ASOS, KFLL 100800Z 34008KT 4SM +RA BR FEW005 BKN035 OVC039 18/18 A3019 Follow KFLL on AV Mobile FORT LAUDERDALE/HOLLYWOOD 954-359-7857
KFMYFAA ID FMY, ASOS, KFMY 100753Z AUTO 03009KT 10SM FEW055 SCT085 14/08 A3024 RMK AO2 SLP243 T01390083 Follow KFMY on AV Mobile FORT MYERS PAGE FIELD 239-936-2318
KRSWFAA ID RSW, ASOS, KRSW 100753Z AUTO 02009KT 10SM FEW050 14/08 A3025 Follow KRSW on AV Mobile FORT MYERS SW FL INTERNATIONAL AIRPORT 239-561-0966
KX82ICAO ID KX82 Fort Pierce Coast Guard Station
KFPRFAA ID FPR, ASOS, KFPR 100753Z 29005KT 10SM BKN039 OVC060 15/13 A3024 Follow KFPR on AV Mobile FORT PIERCE ST LUCIE 772-489-4281
KX86ICAO ID KX86 Fowey Rocks Coast Guard Station
KX89ICAO ID KX89 Ft. Myers Beach Coast Guard Station
KGNVFAA ID GNV, ASOS, KGNV 100753Z AUTO 35006KT 10SM CLR 04/M03 A3038 Follow KGNV on AV Mobile GAINESVILLE REGIONAL AIRPORT 352-335-8672
KHWOFAA ID HWO, ASOS, KHWO 100807Z AUTO 34008KT 10SM BKN005 BKN042 18/17 A3021 RMK AO2 T01830172 Follow KHWO on AV Mobile HOLLYWOOD NORTH PERRY AIRPORT 954-983-5904
X51FAA ID X51, AWOS-3, KSTF 100903Z AUTO 00000KT 10SM CLR M05/M06 A3058 RMK AO2 Follow  on AV Mobile HOMESTEAD 118.375 (305) 247-2791
KHSTFAA ID HST, KHST 100758Z AUTO 33010KT 10SM CLR 17/17 A3018 RMK AO2 SLP223 T01740174 Follow KHST on AV Mobile Homestead Air Force Base
KIMMFAA ID IMM, AWOS-3, KIMM 161355Z AUTO 10007KT FEW016 A3015 RMK A01 P000 Follow KIMM on AV Mobile IMMOKALEE 118.525 239-657-2038
KINFFAA ID INF, AWOS-3, KINF 100835Z AUTO 36007KT 10SM CLR 07/02 A3036 RMK AO2 Follow KINF on AV Mobile INVERNESS 119.975 352-341-0264
KX84ICAO ID KX84 Islamorada Coast Guard Station
KHEGFAA ID HEG, AWOS-3 JACKSONVILLE 119.275 904-695-0334
KCRGFAA ID CRG, ASOS, KCRG 100753Z AUTO 35007KT 10SM CLR 06/01 A3039 RMK AO2 SLP291 T00560011 Follow KCRG on AV Mobile JACKSONVILLE CRAIG MUN 904-646-4670
KJAXFAA ID JAX, ASOS, KJAX 100756Z 36009KT 10SM FEW100 04/M02 A3041 Follow KJAX on AV Mobile JACKSONVILLE INTERNATIONAL 904-741-4304
KNIPFAA ID NIP, KNIP 100753Z 35012KT 10SM FEW250 08/01 A3040 RMK AO2 SLP288 T00830006 $ Follow KNIP on AV Mobile JACKSONVILLE NAVAL AIR STN
KVQQFAA ID VQQ, AWOS-3, KVQQ 100835Z AUTO 35007KT 10SM FEW024 BKN035 03/M03 A3041 RMK AO2 Follow KVQQ on AV Mobile Jacksonville, Cecil Field Airport 125.275 904-778-6934
KNENFAA ID NEN NOLF WHITEHOUSE FIELD, FL
KX80ICAO ID KX80 Jupiter Inlet Coast Guard Station
KEYWFAA ID EYW, ASOS, KEYW 100753Z AUTO 02012KT 10SM FEW012 21/18 A3018 Follow KEYW on AV Mobile KEY WEST INTERNATIONAL AIRPORT 119.65 305-292-4046
KNQXFAA ID NQX, KNQX 100753Z AUTO 02015G21KT 10SM FEW013 20/17 A3018 RMK AO2 SLP217 T02000172 $ Follow KNQX on AV Mobile KEY WEST NAVAL AIR STATION
K42JFAA ID 42J, AWOS-3, K42J 100835Z AUTO 36004KT 10SM 03/M01 A3039 RMK AO1 TSNO Follow K42J on AV Mobile KEYSTONE HEIGHTS 124.275 352-473-8273
KLCQFAA ID LCQ, AWOS-3, KLCQ 100835Z AUTO 02005KT 10SM CLR 01/M03 A3041 RMK AO2 Follow KLCQ on AV Mobile LAKE CITY 120.675 386-754-9366
X07FAA ID X07, AWOS-3, KSTF 100903Z AUTO 00000KT 10SM CLR M05/M06 A3058 RMK AO2 Follow  on AV Mobile LAKE WALES 124.225 863-678-1334
KX81ICAO ID KX81 Lake Worth Inlet
KLALFAA ID LAL, AWOS-3PT, KLAL 100835Z AUTO 01006KT 10SM CLR 09/05 A3033 RMK AO2 Follow KLAL on AV Mobile Lakeland Regional 118.025 863-834-2030
KLEEFAA ID LEE, ASOS, KLEE 100753Z AUTO 36007KT 10SM CLR 08/03 A3035 RMK AO2 SLP275 T00830028 Follow KLEE on AV Mobile LEESBURG REGIONAL AIRPORT 134.325 352-787-1565
K24JFAA ID 24J, AWOS-3, K24J 100835Z AUTO 02003KT CLR 02/M02 A3045 RMK AO1 Follow K24J on AV Mobile LIVE OAK 118.225 386-362-1731
KX88ICAO ID KX88 Marathon Coast Guard Station
KMTHFAA ID MTH, ASOS, KMTH 100753Z AUTO 03010KT 10SM CLR 21/17 A3017 RMK AO2 SLP214 T02110172 Follow KMTH on AV Mobile MARATHON AIRPORT 135.525 305-743-8373
KMKYFAA ID MKY, AWOS-3, KMKY 100835Z AUTO 03010KT 10SM CLR 14/09 A3022 RMK AO1 Follow KMKY on AV Mobile MARCO ISLAND 120.075 239-394-8187
KMAIFAA ID MAI, ASOS, KMAI 100753Z AUTO 03005KT 10SM CLR 02/M06 A3048 RMK AO2 SLP320 T00221056 Follow KMAI on AV Mobile MARIANNA MUNICIPAL AIRPORT 133.525 850-482-6082
KHRTFAA ID HRT, KHRT 100758Z 02009KT 10SM CLR 01/M07 A3048 RMK AO2A SLP324 T00121071 $ Follow KHRT on AV Mobile Hurlburt Field
KNRBFAA ID NRB, KNRB 100752Z AUTO 01007KT 320V030 10SM CLR 11/03 A3039 RMK AO2 SLP289 T01060033 Follow KNRB on AV Mobile MAYPORT NAVAL AIR FACILITY
KMLBFAA ID MLB, ASOS, KMLB 100753Z AUTO 33007KT 10SM SCT050 14/12 A3027 Follow KMLB on AV Mobile MELBOURNE INTERNATIONAL 321-723-7403
KCOIFAA ID COI, AWOS-3 Merritt Island, Merritt Island Airport 119.025 321-986-8864
KTNTFAA ID TNT, AWOS-3 MIAMI 119.075 (239) 695-9198
KX87ICAO ID KX87 Miami Beach Coast Guard Station
KAMXICAO ID KAMX Miami Nexrad
KTMBFAA ID TMB, ASOS, KTMB 100753Z AUTO 36008KT 10SM FEW095 18/15 A3019 Follow KTMB on AV Mobile KENDALL-TAMIAMI EXEC AIRPORT 305-235-1332
KMIAFAA ID MIA, ASOS, KMIA 100838Z 33004KT 10SM FEW007 BKN045 BKN070 18/17 A3020 RMK AO2 T01780167 Follow KMIA on AV Mobile MIAMI INTERNATIONAL AIRPORT 305-870-0235
KOPFFAA ID OPF, KOPF 100809Z AUTO 35007KT 10SM BKN006 OVC055 18/17 A3020 Follow KOPF on AV Mobile MIAMI OPA LOCKA AIRPORT
KNFJFAA ID NFJ CHOCTAW, WHITING FIELD, NOLF
KNSEFAA ID NSE, KNSE 100756Z AUTO 01004KT 10SM CLR M01/M07 A3050 RMK AO2 SLP318 T10061067 $ Follow KNSE on AV Mobile MILTON WHITING FIELD (NORTH)
KNDZFAA ID NDZ, KNDZ 100756Z AUTO 01009KT 10SM CLR 02/M06 A3050 RMK AO2 SLP317 T00171061 FZRANO $ Follow KNDZ on AV Mobile MILTON WHITING FIELD (SOUTH)
KAPFFAA ID APF, ASOS, KAPF 100753Z AUTO 03013G18KT 10SM CLR 15/09 A3023 Follow KAPF on AV Mobile NAPLES MUNICIPAL AIRPORT 239-643-9886
KRRFICAO ID KRRF New Port Richey, Tampa Bay Executive Airport
KEVBFAA ID EVB, AWOS-3, KEVB 100247Z 36011G24KT 10SM SCT040 15/08 A3033 RMK LAST Follow KEVB on AV Mobile New Smyrna Beach, New Smyrna Beach Municipal Airport 124.625 386-409-4705
KOCFFAA ID OCF, AWOS-3, KOCF 100835Z AUTO 36007KT 10SM CLR 07/M01 A3036 RMK AO1 Follow KOCF on AV Mobile Ocala, Ocala International Airport-Jim Taylor Field 128.125 352-237-8525
KOBEFAA ID OBE, AWOS-3, KOBE 100835Z AUTO 36007KT 10SM BKN050 OVC065 12/10 A3026 RMK AO2 Follow KOBE on AV Mobile Okeechobee County Airport 118.675 863-467-1148
KORLFAA ID ORL, ASOS, KORL 100753Z AUTO 34006KT 10SM CLR 11/06 A3031 RMK AO2 SLP269 T01110061 Follow KORL on AV Mobile ORLANDO EXECUTIVE AIRPORT 407-658-6753
KMCOFAA ID MCO, ASOS, KMCO 100753Z 35008KT 10SM OVC250 11/06 A3031 Follow KMCO on AV Mobile ORLANDO INTERNATIONAL AIRPORT 407-855-5235
KSFBFAA ID SFB, ASOS, KSFB 100753Z AUTO 34007KT 10SM CLR 11/07 A3032 Follow KSFB on AV Mobile ORLANDO SANFORD AIRPORT 407-321-9384
KISMFAA ID ISM, AWOS-3, KISM 100756Z 36008KT 10SM CLR 12/06 A3032 RMK AO2 SLP269 T01170061 Follow KISM on AV Mobile Orlando, Kissimmee Municipal Airport 128.775 407-847-0533
KOMNFAA ID OMN, AWOS-3, KOMN 092350Z 02012KT 10SM SKC 12/06 A3034 RMK LAST Follow KOMN on AV Mobile Ormond Beach, Ormond Beach Municipal Airport 118.475 386-615-7084
K28JFAA ID 28J, AWOS-3, K28J 100815Z AUTO 36006KT 10SM SCT036 BKN044 05/01 A3038 RMK AO2 TSNO Follow K28J on AV Mobile PALATKA 119.92 386-312-2212
KFINFAA ID FIN, AWOS-3, KFIN 100835Z AUTO 10SM CLR 06/05 A3035 RMK AO2 T00620045 TSNO Follow KFIN on AV Mobile PALM COAST 128.325 386-437-7334
KECPFAA ID ECP, ASOS, KECP 100753Z AUTO 34006KT 10SM CLR 02/M04 A3046 Follow KECP on AV Mobile PANAMA CITY 119.975 850-235-7857
KPFNICAO ID KPFN, KPFN 030253Z VRB03KT 10SM FEW023 25/23 A2989 Follow KPFN on AV Mobile PANAMA CITY-BAY CTY INTERNATIONAL
KPAMFAA ID PAM, KPAM 100756Z AUTO 02008KT 10SM CLR 04/M04 A3046 RMK AO2 SLP318 T00361039 $ Follow KPAM on AV Mobile Tyndall Air Force Base
KPNSFAA ID PNS, ASOS, KPNS 100753Z AUTO 01006KT 10SM CLR 03/M06 A3050 Follow KPNS on AV Mobile PENSACOLA REGIONAL AIRPORT 850-436-4799
KNPAFAA ID NPA, KNPA 100756Z AUTO 36005KT 10SM CLR 02/M06 A3050 RMK AO2 SLP328 T00171056 $ Follow KNPA on AV Mobile Pensacola, Naval Air Station
K40JFAA ID 40J, AWOS-3PT, K40J 100835Z AUTO 03004KT 10SM CLR 02/M05 A3044 RMK AO2 T00241047 Follow K40J on AV Mobile PERRY-FOLEY AIRPORT 118.375 850-838-3526
FA54FAA ID FA54, Belfort CORAL CREEK
KPCMFAA ID PCM, AWOS-3, KPCM 100835Z AUTO 02006KT 10SM CLR 10/05 A3034 RMK AO2 Follow KPCM on AV Mobile Plant City, Plant City Municipal Airport 120.025 813-764-8259
KPMPFAA ID PMP, ASOS, KPMP 100835Z AUTO 33010KT 3SM RA BR FEW004 BKN008 OVC017 19/19 A3020 RMK AO2 P0015 T01940189 $ Follow KPMP on AV Mobile POMPANO BEACH AIRPARK 954-783-3720
K1J3ICAO ID K1J3 Ponce De Leon Inlet
KPGDFAA ID PGD, ASOS, KPGD 100753Z 02010KT 10SM CLR 12/07 A3028 RMK AO2 SLP254 T01220072 Follow KPGD on AV Mobile PUNTA GORDA CHARLOTTE COUNTY 135.675 941-639-0076
K2J9FAA ID 2J9, AWOS-3, K2J9 041455Z AUTO CLR 25/16 A3014 RMK AO1 Follow K2J9 on AV Mobile QUINCY 118.975 (850) 627-6264
K1J5ICAO ID K1J5 Santa Rosa Coast Guard Station
KSRQFAA ID SRQ, ASOS, KSRQ 100753Z AUTO 04012KT 10SM CLR 11/04 A3028 Follow KSRQ on AV Mobile SARASOTA/BRADENTON INTERNATIONAL . 124.375 941-359-0117
KSEFFAA ID SEF, AWOS-3 SEBRING 119.475 863-655-6424
KSGJFAA ID SGJ, AWOS-3, KSGJ 100758Z 32006KT 10SM CLR 07/03 A3038 RMK AO2 SLP286 T00720033 Follow KSGJ on AV Mobile St. Augustine, St. Augustine Airport 904-824-7084
KPIEFAA ID PIE, ASOS, KPIE 100753Z AUTO 02009KT 10SM CLR 11/03 A3033 Follow KPIE on AV Mobile ST PETERSBURG/CLEARWATER 727-531-3456
KSPGFAA ID SPG, ASOS, KSPG 100753Z AUTO 04015KT 10SM CLR 12/07 A3031 RMK AO2 SLP262 T01220072 Follow KSPG on AV Mobile ST PETERSBURG WHITTED AIRPORT 118.875 727-821-4334
KSUAFAA ID SUA, AWOS-3, KSUA 100835Z AUTO 29005KT 7SM -DZ OVC025 18/16 A3025 RMK AO2 Follow KSUA on AV Mobile Stuart, Witham Field Airport 772-692-7399
KTLHFAA ID TLH, ASOS, KTLH 100753Z AUTO 36005KT 10SM CLR 02/M03 A3046 Follow KTLH on AV Mobile TALLAHASSEE REGIONAL AIRPORT 850-576-3665
KTBWICAO ID KTBW Tampa Bay Area
KMCFFAA ID MCF, KMCF 100758Z AUTO 05006KT 10SM CLR 10/04 A3032 RMK AO2 SLP270 T00990037 $ Follow KMCF on AV Mobile Macdill Air Force Base, Fl.
KTPAFAA ID TPA, ASOS, KTPA 100753Z 03007KT 10SM BKN170 11/03 A3033 Follow KTPA on AV Mobile TAMPA INTERNATIONAL AIRPORT 813-873-7228
KTPFFAA ID TPF, AWOS-3, KTPF 100835Z AUTO 03009G14KT 10SM CLR 11/05 A3032 RMK AO2 Follow KTPF on AV Mobile Tampa, Peter O Knight Airport 118.925 813-251-6824
KVDFFAA ID VDF, AWOS-3, KVDF 100835Z AUTO 02003KT 10SM CLR 10/03 A3034 RMK AO2 Follow KVDF on AV Mobile Tampa, Vandenberg Airport 121.125 813-630-0924
KVLGICAO ID KVLG The Villages
KVVGICAO ID KVVG, KVVG 100835Z AUTO 10SM 07/05 A3025 RMK A01 Follow KVVG on AV Mobile The Villages
KX68ICAO ID KX68 Titusville, NASA Shuttle Landing Facility
KTIXFAA ID TIX, KTIX 100153Z 30008KT 7SM SCT120 11/10 A3033 RMK LAST Follow KTIX on AV Mobile Titusville
KX21FAA ID X21, AWOS-3 Titusville, Arthur Dunn Air Park 119.725 321-385-0383
KTTSFAA ID TTS, KTTS 100758Z AUTO 05005KT 10SM FEW037 17/11 A3027 RMK AO2 SLP255 T01690112 $ Follow KTTS on AV Mobile Titusville, NASA Shuttle Landing Facility
KVPSFAA ID VPS, KVPS 100755Z 02007KT 10SM CLR 01/M07 A3049 RMK AO2A SLP326 T00101066 $ Follow KVPS on AV Mobile Valparaiso / Eglin Air Force Base
KVNCFAA ID VNC, AWOS-3, KVNC 100835Z AUTO 04014KT 10SM CLR 12/07 A3028 RMK AO2 TSNO Follow KVNC on AV Mobile VENICE 119.275
KX90ICAO ID KX90 Venice Long Range Navigation
KVRBFAA ID VRB, ASOS, KVRB 100753Z AUTO 30004KT 10SM OVC060 16/13 A3025 Follow KVRB on AV Mobile VERO BEACH MUNICIPAL AIRPORT 772-978-9535
F45FAA ID F45, AWOS-3, KSTF 100903Z AUTO 00000KT 10SM CLR M05/M06 A3058 RMK AO2 Follow  on AV Mobile WEST PALM BEACH 119.975 561-630-6932
KLNAFAA ID LNA, AWOS-3 WEST PALM BEACH 119.925 561-964-0308
KPBIFAA ID PBI, ASOS, KPBI 100753Z 36007KT 3SM -RA BR BKN007 BKN022 OVC033 19/18 A3022 Follow KPBI on AV Mobile PALM BEACH INTERNATIONAL 123.75 561-683-2548
FD38FAA ID FD38, Belfort WELLINGTON AERO CLUB
KX60FAA ID X60, AWOS-3, KX60 100835Z AUTO 34005KT 10SM CLR 05/M01 A3039 RMK A01 TSNO Follow KX60 on AV Mobile WILLISTON 118.425 352-528-9949
KGIFFAA ID GIF, ASOS, KGIF 100753Z AUTO 36008KT 10SM CLR 11/06 A3033 RMK AO2 SLP268 T01110056 Follow KGIF on AV Mobile WINTER HAVENS GILBERT AIRPORT 133.675 863-956-2097
KZPHFAA ID ZPH, ASOS, KZPH 100835Z AUTO 01007KT 10SM CLR A3034 RMK AO2 Follow KZPH on AV Mobile ZEPHYRHILLS 118.975 813-780-0031

Click on the AV Mobile icon AV Mobile icon by any station to follow that AWOS feed on AirportView.net Mobile.

Leaders in ADS-B Avemco Insurance Company